Time;durP1;ratioP1;P1;durP2;ratioP2;P2;SDS_P1;SDS_P2;PMS_P1;PMS_P2;Temp;Humidity;BMP_temperature;BMP_pressure;BME280_temperature;BME280_humidity;BME280_pressure;Samples;Min_cycle;Max_cycle;Signal;HPM_P1;HPM_P2
2021/01/21 00:01:32;;;;;;;8.60;1.98;;;18.70;67.80;;;;;;4979707;28;96759;-45
2021/01/21 00:04:03;;;;;;;5.68;2.47;;;18.80;67.70;;;;;;4993248;28;96710;-43
2021/01/21 00:06:34;;;;;;;3.03;1.67;;;18.80;67.70;;;;;;4997726;28;95972;-43
2021/01/21 00:09:04;;;;;;;4.38;1.58;;;18.80;67.60;;;;;;4992582;28;97043;-40
2021/01/21 00:11:34;;;;;;;5.38;2.10;;;18.90;67.60;;;;;;4991441;28;96238;-38
2021/01/21 00:14:03;;;;;;;3.72;1.67;;;19.00;67.40;;;;;;4987853;28;98681;-38
2021/01/21 00:16:34;;;;;;;6.28;1.30;;;19.10;67.40;;;;;;4985313;28;95939;-41
2021/01/21 00:19:07;;;;;;;5.47;1.63;;;19.20;67.30;;;;;;4988563;28;96012;-41
2021/01/21 00:21:39;;;;;;;1.67;1.23;;;19.30;67.20;;;;;;4991076;28;95564;-41
2021/01/21 00:24:09;;;;;;;4.45;1.52;;;19.40;67.10;;;;;;4990938;28;96120;-39
2021/01/21 00:26:40;;;;;;;2.72;1.30;;;19.50;67.10;;;;;;5007341;28;95803;-46
2021/01/21 00:29:10;;;;;;;3.17;1.27;;;19.60;66.90;;;;;;4997519;28;95796;-46
2021/01/21 00:31:40;;;;;;;2.40;1.25;;;19.70;66.80;;;;;;4993399;28;95955;-40
2021/01/21 00:34:12;;;;;;;4.10;1.45;;;19.80;66.70;;;;;;4991678;28;96433;-40
2021/01/21 00:36:43;;;;;;;2.35;1.08;;;19.90;66.80;;;;;;5005305;28;95990;-40
2021/01/21 00:39:13;;;;;;;2.63;1.17;;;19.90;66.70;;;;;;4989701;28;95580;-40
2021/01/21 00:41:43;;;;;;;2.63;1.40;;;20.00;66.60;;;;;;4994419;28;95655;-38
2021/01/21 00:44:14;;;;;;;;;;;20.10;66.50;;;;;;4988865;28;98707;-39
2021/01/21 00:46:44;;;;;;;2.50;1.13;;;20.20;66.90;;;;;;4991925;28;96235;-52
2021/01/21 00:49:16;;;;;;;1.20;1.10;;;20.30;66.30;;;;;;4990936;28;96333;-49
2021/01/21 00:51:47;;;;;;;1.83;1.10;;;20.40;66.40;;;;;;4991581;28;95952;-39
2021/01/21 00:54:20;;;;;;;4.10;1.00;;;20.40;66.30;;;;;;4987509;28;96056;-39
2021/01/21 00:56:51;;;;;;;1.83;0.82;;;20.50;66.30;;;;;;5001662;28;96530;-39
2021/01/21 00:59:24;;;;;;;2.35;0.90;;;20.60;66.20;;;;;;4987984;28;95776;-39
2021/01/21 01:01:55;;;;;;;2.00;1.02;;;20.70;66.10;;;;;;4991317;28;97107;-40
2021/01/21 01:04:28;;;;;;;1.15;0.80;;;20.70;65.90;;;;;;4988096;28;95870;-39
2021/01/21 01:07:03;;;;;;;1.98;0.85;;;20.80;65.90;;;;;;4974680;28;99198;-48
2021/01/21 01:09:37;;;;;;;2.75;1.20;;;20.90;66.40;;;;;;4999540;28;95951;-46
2021/01/21 01:12:07;;;;;;;0.75;0.75;;;21.00;65.70;;;;;;4982373;28;96089;-41
2021/01/21 01:14:39;;;;;;;3.20;1.48;;;21.10;65.60;;;;;;5002397;28;96146;-41
2021/01/21 01:17:10;;;;;;;3.47;1.50;;;21.00;64.30;;;;;;4985202;28;96403;-41
2021/01/21 01:19:49;;;;;;;3.05;1.45;;;20.90;64.60;;;;;;4995556;28;95806;-41
2021/01/21 01:22:20;;;;;;;1.85;1.00;;;20.90;64.70;;;;;;4985164;28;96261;-40
2021/01/21 01:24:51;;;;;;;3.78;1.40;;;20.80;64.90;;;;;;4987453;28;96172;-40
2021/01/21 01:27:21;;;;;;;1.63;1.10;;;20.80;64.80;;;;;;4986838;28;95772;-42
2021/01/21 01:29:52;;;;;;;1.95;1.20;;;20.80;64.80;;;;;;4986056;28;95832;-41
2021/01/21 01:32:23;;;;;;;4.55;1.60;;;20.80;64.80;;;;;;4983755;28;99204;-41
2021/01/21 01:34:56;;;;;;;2.33;1.10;;;20.80;64.60;;;;;;4986012;28;96457;-43
2021/01/21 01:37:28;;;;;;;2.67;1.23;;;20.80;64.50;;;;;;4993264;28;98028;-45
2021/01/21 01:40:04;;;;;;;3.13;1.20;;;20.80;64.50;;;;;;4990546;28;98761;-43
2021/01/21 01:42:41;;;;;;;1.98;1.20;;;20.90;64.50;;;;;;4997019;28;97679;-44
2021/01/21 01:45:16;;;;;;;3.72;1.70;;;21.10;64.30;;;;;;5007699;28;96169;-40
2021/01/21 01:47:49;;;;;;;2.75;1.45;;;21.20;64.30;;;;;;4985440;28;102618;-52
2021/01/21 01:50:42;;;;;;;5.68;1.83;;;21.30;64.20;;;;;;4983598;28;96324;-51
2021/01/21 01:53:18;;;;;;;5.03;1.65;;;21.30;62.30;;;;;;4994094;28;97289;-42
2021/01/21 01:55:52;;;;;;;4.35;1.58;;;21.30;62.80;;;;;;4992430;28;96459;-45
2021/01/21 01:58:46;;;;;;;2.72;1.40;;;21.20;61.50;;;;;;4995909;28;98538;-46
2021/01/21 02:01:32;;;;;;;1.77;1.27;;;21.20;60.20;;;;;;4989543;28;96062;-43
2021/01/21 02:04:07;;;;;;;3.88;1.30;;;21.20;59.80;;;;;;4995275;28;96002;-51
2021/01/21 02:07:00;;;;;;;2.22;1.15;;;21.10;59.40;;;;;;5007893;28;96311;-50
2021/01/21 02:09:34;;;;;;;8.15;1.83;;;21.10;59.00;;;;;;4992998;28;96281;-43
2021/01/21 02:12:39;;;;;;;1.67;1.05;;;21.20;58.80;;;;;;4986726;28;96087;-45
2021/01/21 02:15:53;;;;;;;3.60;1.48;;;21.20;58.40;;;;;;4945462;28;95652;-43
2021/01/21 02:19:16;;;;;;;4.65;1.60;;;21.20;58.50;;;;;;4989593;27;102116;-40
2021/01/21 02:22:10;;;;;;;4.75;1.27;;;21.20;58.10;;;;;;4968307;28;98039;-41
2021/01/21 02:24:57;;;;;;;1.58;1.02;;;21.20;57.90;;;;;;5009303;27;99844;-46
2021/01/21 02:28:01;;;;;;;3.83;1.10;;;21.20;57.10;;;;;;5045111;27;95508;-55
2021/01/21 02:30:55;;;;;;;3.28;1.30;;;21.30;57.30;;;;;;4993345;27;96056;-43
2021/01/21 02:33:56;;;;;;;4.00;1.50;;;21.30;57.00;;;;;;5007250;28;96464;-51
2021/01/21 02:36:40;;;;;;;2.72;1.30;;;21.40;57.00;;;;;;5006209;28;95493;-45
2021/01/21 02:39:32;;;;;;;4.82;1.33;;;21.40;56.40;;;;;;5004120;28;95915;-46
2021/01/21 02:42:05;;;;;;;3.25;1.70;;;21.40;56.20;;;;;;5016442;28;98428;-41
2021/01/21 02:44:36;;;;;;;2.05;1.17;;;21.40;56.10;;;;;;5008213;28;96359;-40
2021/01/21 02:47:05;;;;;;;1.30;1.10;;;21.40;55.90;;;;;;4998973;28;96133;-46
2021/01/21 02:49:38;;;;;;;2.95;1.27;;;21.50;55.60;;;;;;5007154;27;95697;-42
2021/01/21 02:52:26;;;;;;;1.27;1.02;;;21.50;55.50;;;;;;5020655;28;96624;-40
2021/01/21 02:55:02;;;;;;;2.50;1.50;;;21.50;55.30;;;;;;5006148;27;97741;-42
2021/01/21 02:57:55;;;;;;;2.92;1.10;;;21.60;55.10;;;;;;5037819;27;95668;-46
2021/01/21 03:00:26;;;;;;;2.45;1.10;;;21.60;55.00;;;;;;5002764;28;98594;-40
2021/01/21 03:03:01;;;;;;;4.00;1.38;;;21.70;54.90;;;;;;5004264;28;100841;-39
2021/01/21 03:05:34;;;;;;;3.03;1.50;;;21.70;54.80;;;;;;5012989;28;96285;-45
2021/01/21 03:08:06;;;;;;;3.30;1.10;;;21.70;54.80;;;;;;5021062;28;95830;-47
2021/01/21 03:10:36;;;;;;;1.40;1.00;;;21.80;54.80;;;;;;5014814;27;95645;-49
2021/01/21 03:13:05;;;;;;;3.50;1.17;;;21.70;54.40;;;;;;5024133;27;95717;-47
2021/01/21 03:15:47;;;;;;;3.15;1.35;;;21.80;54.40;;;;;;5010157;27;96454;-48
2021/01/21 03:18:22;;;;;;;4.55;1.33;;;21.70;54.50;;;;;;5022658;28;95859;-49
2021/01/21 03:20:54;;;;;;;1.45;0.88;;;21.70;54.30;;;;;;5017090;27;99940;-47
2021/01/21 03:23:52;;;;;;;3.30;1.65;;;21.70;54.10;;;;;;5016749;28;98401;-46
2021/01/21 03:26:35;;;;;;;3.53;1.00;;;21.70;53.90;;;;;;5015187;28;99996;-46
2021/01/21 03:29:11;;;;;;;2.05;1.00;;;21.60;53.70;;;;;;5016789;28;101208;-46
2021/01/21 03:31:41;;;;;;;3.05;1.23;;;21.60;53.60;;;;;;5009678;27;95362;-48
2021/01/21 03:34:11;;;;;;;1.42;1.00;;;21.60;53.50;;;;;;5023195;28;96434;-48
2021/01/21 03:36:49;;;;;;;1.70;1.02;;;21.60;53.60;;;;;;5014977;27;97329;-47
2021/01/21 03:39:21;;;;;;;1.98;0.98;;;21.60;53.20;;;;;;5021784;28;95746;-48
2021/01/21 03:42:20;;;;;;;4.85;1.60;;;21.70;53.30;;;;;;5010991;28;95383;-47
2021/01/21 03:45:10;;;;;;;1.33;0.90;;;21.60;53.20;;;;;;5008988;28;98763;-45
2021/01/21 03:47:40;;;;;;;1.35;1.05;;;21.70;53.20;;;;;;5024156;27;96414;-45
2021/01/21 03:50:11;;;;;;;1.58;1.17;;;21.70;53.40;;;;;;5021298;27;95947;-46
2021/01/21 03:52:44;;;;;;;2.33;1.42;;;21.70;53.20;;;;;;5017960;27;95741;-48
2021/01/21 03:55:19;;;;;;;3.50;1.15;;;21.70;53.10;;;;;;5024125;27;99018;-49
2021/01/21 03:58:13;;;;;;;2.20;1.20;;;21.70;52.80;;;;;;5020428;27;95250;-49
2021/01/21 04:00:55;;;;;;;1.73;0.90;;;21.80;52.80;;;;;;5028461;28;95777;-49
2021/01/21 04:03:25;;;;;;;1.48;0.85;;;21.70;52.70;;;;;;5025076;27;95864;-48
2021/01/21 04:06:00;;;;;;;3.55;1.30;;;21.80;52.70;;;;;;5018737;27;98777;-48
2021/01/21 04:08:30;;;;;;;3.27;1.17;;;21.70;52.60;;;;;;5022879;27;95547;-47
2021/01/21 04:11:30;;;;;;;2.38;1.13;;;21.80;52.40;;;;;;4976906;28;95900;-49
2021/01/21 04:14:06;;;;;;;2.30;1.40;;;21.80;52.40;;;;;;5017469;28;95854;-48
2021/01/21 04:16:40;;;;;;;1.80;1.38;;;21.90;52.20;;;;;;5015429;27;95974;-46
2021/01/21 04:19:12;;;;;;;1.85;1.00;;;21.80;52.10;;;;;;5059111;27;96686;-47
2021/01/21 04:21:48;;;;;;;1.55;0.90;;;21.80;52.00;;;;;;5025827;28;95880;-51
2021/01/21 04:24:21;;;;;;;2.13;1.00;;;21.80;52.10;;;;;;5027853;28;95395;-48
2021/01/21 04:26:55;;;;;;;3.08;0.90;;;21.90;51.90;;;;;;5024033;27;96112;-46
2021/01/21 04:29:36;;;;;;;1.38;1.27;;;21.90;51.80;;;;;;5016559;27;96283;-46
2021/01/21 04:32:07;;;;;;;1.30;1.00;;;21.90;51.80;;;;;;5014080;28;96055;-53
2021/01/21 04:34:36;;;;;;;1.33;1.23;;;22.00;51.70;;;;;;5020655;28;95852;-47
2021/01/21 04:37:06;;;;;;;3.33;1.23;;;21.90;51.70;;;;;;5018586;27;98288;-46
2021/01/21 04:40:03;;;;;;;1.63;0.80;;;22.00;51.60;;;;;;5047254;27;95866;-48
2021/01/21 04:42:35;;;;;;;1.58;0.95;;;22.00;51.50;;;;;;5024590;28;95986;-45
2021/01/21 04:45:10;;;;;;;2.25;0.75;;;22.10;51.40;;;;;;5051022;27;95497;-48
2021/01/21 04:47:47;;;;;;;1.42;1.00;;;22.10;51.20;;;;;;5053320;27;95453;-47
2021/01/21 04:50:29;;;;;;;2.45;1.30;;;22.10;51.30;;;;;;5014816;27;95881;-48
2021/01/21 04:53:14;;;;;;;1.08;0.70;;;22.10;51.20;;;;;;5030074;28;95386;-46
2021/01/21 04:56:00;;;;;;;0.80;0.80;;;22.10;51.10;;;;;;5020542;28;96446;-47
2021/01/21 04:58:58;;;;;;;1.90;1.00;;;22.10;51.00;;;;;;5012728;28;95811;-46
2021/01/21 05:01:44;;;;;;;1.40;0.95;;;22.10;51.30;;;;;;5024765;27;96187;-50
2021/01/21 05:04:19;;;;;;;1.92;1.02;;;22.10;51.00;;;;;;4982153;28;103016;-48
2021/01/21 05:07:04;;;;;;;0.75;0.75;;;22.10;51.10;;;;;;5024823;28;95941;-43
2021/01/21 05:09:35;;;;;;;2.90;1.30;;;22.20;51.10;;;;;;5013354;27;103298;-41
2021/01/21 05:12:10;;;;;;;1.88;1.17;;;22.30;51.10;;;;;;5023805;27;96448;-45
2021/01/21 05:14:57;;;;;;;2.05;1.00;;;22.40;51.30;;;;;;5012249;27;97029;-47
2021/01/21 05:18:04;;;;;;;2.10;1.05;;;22.60;51.20;;;;;;5006616;28;96142;-42
2021/01/21 05:21:08;;;;;;;3.08;2.83;;;22.60;50.90;;;;;;4983659;28;96135;-45
2021/01/21 05:24:03;;;;;;;2.42;0.85;;;22.70;50.80;;;;;;5009287;27;95912;-43
2021/01/21 05:26:53;;;;;;;1.52;1.10;;;22.80;50.60;;;;;;5005461;28;96520;-37
2021/01/21 05:29:50;;;;;;;0.82;0.80;;;22.80;50.80;;;;;;5005181;28;95970;-40
2021/01/21 05:32:21;;;;;;;1.45;1.17;;;23.00;51.20;;;;;;5008150;28;98578;-38
2021/01/21 05:35:16;;;;;;;3.55;1.42;;;23.10;51.50;;;;;;5017781;27;96494;-40
2021/01/21 05:37:54;;;;;;;5.35;2.28;;;23.20;50.30;;;;;;5020703;28;96735;-41
2021/01/21 05:40:48;;;;;;;5.45;1.13;;;23.20;51.50;;;;;;5013515;28;95639;-45
2021/01/21 05:43:48;;;;;;;3.67;1.10;;;23.20;51.40;;;;;;5019265;27;96122;-43
2021/01/21 05:46:44;;;;;;;1.40;1.30;;;23.30;51.30;;;;;;4998262;27;96610;-43
2021/01/21 05:49:15;;;;;;;2.38;1.10;;;23.30;51.80;;;;;;4995242;28;95817;-41
2021/01/21 05:51:47;;;;;;;1.92;0.88;;;23.40;51.90;;;;;;4998751;28;97270;-40
2021/01/21 05:54:28;;;;;;;3.03;0.90;;;23.50;52.10;;;;;;5001583;28;97033;-56
2021/01/21 05:57:09;;;;;;;2.13;1.08;;;23.60;52.10;;;;;;4998894;28;98109;-43
2021/01/21 05:59:44;;;;;;;1.30;1.20;;;23.80;52.20;;;;;;5017617;28;96741;-43
2021/01/21 06:02:30;;;;;;;2.40;1.20;;;23.90;52.30;;;;;;4998807;28;96520;-50
2021/01/21 06:05:14;;;;;;;0.82;0.82;;;24.00;52.50;;;;;;5000472;28;96871;-45
2021/01/21 06:07:50;;;;;;;0.77;0.77;;;24.20;52.80;;;;;;4992121;28;97827;-47
2021/01/21 06:10:22;;;;;;;1.10;0.90;;;24.30;52.90;;;;;;5003033;28;95779;-40
2021/01/21 06:12:53;;;;;;;1.20;1.10;;;24.40;52.90;;;;;;5000299;28;95829;-42
2021/01/21 06:15:23;;;;;;;2.40;0.70;;;24.50;53.10;;;;;;4995324;28;96350;-41
2021/01/21 06:17:53;;;;;;;1.30;0.93;;;24.60;53.20;;;;;;4997552;28;95719;-41
2021/01/21 06:20:57;;;;;;;0.95;0.82;;;24.70;53.20;;;;;;4994656;28;96632;-46
2021/01/21 06:23:58;;;;;;;1.08;0.75;;;24.70;53.30;;;;;;4993460;28;96037;-39
2021/01/21 06:26:53;;;;;;;1.00;1.00;;;24.80;53.30;;;;;;5000119;28;96488;-47
2021/01/21 06:29:26;;;;;;;1.90;0.90;;;24.90;53.30;;;;;;4997851;28;97200;-57
2021/01/21 06:32:02;;;;;;;2.28;1.27;;;24.90;51.00;;;;;;5009006;27;96597;-44
2021/01/21 06:34:35;;;;;;;1.08;0.70;;;24.80;48.80;;;;;;5019327;27;96432;-45
2021/01/21 06:37:21;;;;;;;1.75;1.20;;;24.60;48.30;;;;;;5020688;27;96573;-43
2021/01/21 06:40:08;;;;;;;1.98;1.40;;;24.60;48.80;;;;;;5011588;27;98391;-46
2021/01/21 06:42:46;;;;;;;2.00;1.30;;;24.50;48.60;;;;;;5021198;28;96687;-45
2021/01/21 06:45:18;;;;;;;4.07;1.48;;;24.40;47.80;;;;;;5017213;27;95651;-44
2021/01/21 06:47:54;;;;;;;6.22;1.25;;;24.40;47.70;;;;;;5021456;28;102380;-41
2021/01/21 06:50:29;;;;;;;2.88;1.48;;;24.40;47.60;;;;;;5021979;28;96220;-54
2021/01/21 06:53:04;;;;;;;1.50;1.20;;;24.40;47.50;;;;;;5023223;27;97506;-58
2021/01/21 06:55:38;;;;;;;6.35;1.50;;;24.40;47.40;;;;;;5018159;27;96102;-56
2021/01/21 06:58:10;;;;;;;6.13;1.40;;;24.50;47.40;;;;;;5020504;27;96383;-56
2021/01/21 07:00:45;;;;;;;2.05;1.08;;;24.50;47.00;;;;;;5014174;27;95934;-45
2021/01/21 07:03:32;;;;;;;2.83;1.35;;;24.50;47.00;;;;;;5014732;27;96836;-49
2021/01/21 07:06:04;;;;;;;4.75;1.23;;;24.40;46.80;;;;;;5020379;27;95684;-45
2021/01/21 07:09:06;;;;;;;4.28;1.63;;;24.40;46.60;;;;;;5022448;28;96127;-46
2021/01/21 07:11:38;;;;;;;3.53;1.25;;;24.40;46.90;;;;;;5018466;27;96144;-41
2021/01/21 07:14:13;;;;;;;1.20;1.10;;;24.40;46.40;;;;;;5012773;27;96583;-47
2021/01/21 07:16:59;;;;;;;3.65;1.50;;;24.40;46.10;;;;;;5019523;27;98088;-44
2021/01/21 07:19:41;;;;;;;4.40;1.60;;;24.40;46.20;;;;;;5019244;27;98416;-44
2021/01/21 07:22:23;;;;;;;3.20;1.35;;;24.40;45.90;;;;;;5025534;27;95781;-48
2021/01/21 07:24:57;;;;;;;7.07;1.25;;;24.40;46.20;;;;;;5021229;28;95329;-46
2021/01/21 07:27:34;;;;;;;3.80;1.42;;;24.40;45.70;;;;;;5025056;27;95625;-44
2021/01/21 07:30:23;;;;;;;3.95;1.35;;;24.40;45.50;;;;;;5013925;27;100061;-44
2021/01/21 07:33:21;;;;;;;2.72;1.40;;;24.30;45.50;;;;;;5018858;27;95794;-44
2021/01/21 07:35:52;;;;;;;3.65;1.23;;;24.30;45.70;;;;;;5022575;28;95927;-44
2021/01/21 07:38:42;;;;;;;2.35;1.42;;;24.20;45.70;;;;;;5017168;28;96121;-44
2021/01/21 07:41:41;;;;;;;3.85;1.48;;;24.20;45.90;;;;;;5009814;27;96278;-42
2021/01/21 07:44:12;;;;;;;2.50;1.30;;;24.20;45.80;;;;;;5019950;28;95700;-44
2021/01/21 07:46:43;;;;;;;;;;;24.20;45.40;;;;;;5007552;27;96288;-44
2021/01/21 07:49:28;;;;;;;2.88;1.38;;;24.10;45.60;;;;;;5025623;28;95695;-44
2021/01/21 07:52:07;;;;;;;7.28;1.70;;;24.10;45.60;;;;;;5014762;28;96921;-43
2021/01/21 07:54:48;;;;;;;5.75;1.38;;;24.00;45.50;;;;;;5023102;27;96833;-43
2021/01/21 07:57:28;;;;;;;3.47;1.55;;;24.00;45.50;;;;;;5016391;28;95837;-43
2021/01/21 08:00:00;;;;;;;4.75;1.83;;;24.00;45.40;;;;;;5018213;27;95848;-44
2021/01/21 08:02:50;;;;;;;2.57;1.40;;;24.00;45.20;;;;;;5009897;27;96397;-43
2021/01/21 08:05:23;;;;;;;3.40;1.20;;;24.00;45.30;;;;;;5016105;28;95991;-44
2021/01/21 08:07:56;;;;;;;5.53;1.98;;;23.90;45.50;;;;;;5020645;28;97117;-43
2021/01/21 08:10:28;;;;;;;2.38;1.45;;;23.90;45.50;;;;;;5024078;28;95405;-45
2021/01/21 08:13:00;;;;;;;6.90;1.65;;;23.90;45.30;;;;;;5020213;27;97040;-43
2021/01/21 08:15:31;;;;;;;3.85;1.83;;;23.80;45.10;;;;;;5016586;27;98277;-44
2021/01/21 08:18:05;;;;;;;7.82;1.88;;;23.80;45.10;;;;;;5014547;28;95662;-44
2021/01/21 08:20:37;;;;;;;1.90;1.75;;;23.80;45.10;;;;;;5017690;28;95630;-42
2021/01/21 08:23:12;;;;;;;5.05;1.45;;;23.80;45.00;;;;;;5016739;28;95899;-45
2021/01/21 08:25:48;;;;;;;2.22;1.58;;;23.80;45.30;;;;;;5059163;27;95878;-44
2021/01/21 08:28:19;;;;;;;5.65;1.45;;;23.70;45.90;;;;;;5020369;28;96683;-43
2021/01/21 08:30:50;;;;;;;2.08;1.50;;;23.80;46.60;;;;;;5012874;27;95802;-44
2021/01/21 08:33:31;;;;;;;4.85;1.50;;;23.80;47.40;;;;;;5015890;28;96598;-46
2021/01/21 08:36:11;;;;;;;4.82;1.73;;;23.90;47.80;;;;;;5020056;27;95813;-44
2021/01/21 08:38:45;;;;;;;5.88;1.85;;;24.00;48.30;;;;;;5019184;28;95983;-44
2021/01/21 08:41:19;;;;;;;6.00;1.63;;;24.00;48.90;;;;;;5024704;27;95314;-44
2021/01/21 08:43:58;;;;;;;4.78;1.33;;;24.00;49.30;;;;;;5017188;27;98867;-44
2021/01/21 08:46:30;;;;;;;2.25;1.60;;;24.00;49.40;;;;;;5013679;27;98064;-44
2021/01/21 08:49:11;;;;;;;5.03;1.80;;;24.00;49.70;;;;;;5014619;28;95681;-44
2021/01/21 08:51:44;;;;;;;4.55;1.73;;;24.00;49.60;;;;;;5011181;27;97290;-44
2021/01/21 08:54:19;;;;;;;4.25;1.70;;;24.00;50.00;;;;;;4998851;28;97247;-44
2021/01/21 08:57:15;;;;;;;3.70;1.30;;;24.00;50.50;;;;;;5012473;27;95906;-45
2021/01/21 08:59:48;;;;;;;2.22;1.23;;;24.00;50.60;;;;;;5016455;27;95195;-45
2021/01/21 09:02:43;;;;;;;2.13;1.42;;;24.00;51.30;;;;;;5012283;27;95735;-45
2021/01/21 09:05:13;;;;;;;8.63;1.50;;;24.00;51.30;;;;;;5016480;28;96068;-44
2021/01/21 09:07:45;;;;;;;6.57;1.33;;;24.10;52.10;;;;;;5017314;28;95983;-44
2021/01/21 09:10:15;;;;;;;6.20;1.63;;;24.10;52.30;;;;;;5014330;27;96295;-45
2021/01/21 09:12:44;;;;;;;2.72;1.30;;;24.10;52.50;;;;;;5012725;28;95946;-45
2021/01/21 09:15:14;;;;;;;8.57;1.90;;;24.10;52.80;;;;;;5017164;27;95957;-44
2021/01/21 09:18:05;;;;;;;4.15;1.65;;;24.10;53.00;;;;;;5021228;27;95852;-45
2021/01/21 09:20:38;;;;;;;4.32;1.58;;;24.10;52.70;;;;;;5012305;28;95779;-44
2021/01/21 09:23:21;;;;;;;3.08;1.52;;;24.10;53.50;;;;;;5012147;28;95824;-45
2021/01/21 09:25:51;;;;;;;1.45;1.35;;;24.10;53.20;;;;;;5013693;28;96889;-44
2021/01/21 09:28:21;;;;;;;5.20;1.75;;;24.20;53.80;;;;;;5029623;28;95884;-44
2021/01/21 09:30:51;;;;;;;4.57;2.40;;;24.20;54.00;;;;;;5015246;27;95691;-44
2021/01/21 09:33:21;;;;;;;3.35;1.52;;;24.20;54.20;;;;;;5011258;28;96153;-45
2021/01/21 09:35:52;;;;;;;3.67;1.65;;;24.20;54.30;;;;;;5017516;28;95974;-46
2021/01/21 09:38:22;;;;;;;2.92;1.73;;;24.10;54.40;;;;;;5015128;28;96255;-44
2021/01/21 09:40:52;;;;;;;2.47;1.58;;;24.20;54.50;;;;;;5019242;28;95337;-44
2021/01/21 09:43:24;;;;;;;3.53;1.67;;;24.20;54.60;;;;;;5013724;28;96084;-44
2021/01/21 09:45:54;;;;;;;2.10;1.38;;;24.20;54.80;;;;;;5047922;27;98305;-44
2021/01/21 09:48:25;;;;;;;3.97;1.52;;;24.20;54.80;;;;;;5016993;27;95791;-44
2021/01/21 09:50:57;;;;;;;3.83;1.67;;;24.20;54.90;;;;;;5013692;28;97115;-44
2021/01/21 09:53:30;;;;;;;3.63;1.85;;;24.20;55.00;;;;;;5020409;28;95818;-45
2021/01/21 09:56:04;;;;;;;3.28;1.60;;;24.10;55.00;;;;;;5010616;27;96399;-44
2021/01/21 09:58:35;;;;;;;2.70;1.45;;;24.10;55.00;;;;;;5016044;28;95372;-42
2021/01/21 10:01:06;;;;;;;;;;;24.20;55.00;;;;;;5008149;27;95404;-41
2021/01/21 10:03:51;;;;;;;4.18;1.35;;;24.20;54.60;;;;;;5015016;28;95808;-42
2021/01/21 10:06:25;;;;;;;5.07;1.73;;;24.20;55.00;;;;;;5009752;28;102403;-41
2021/01/21 10:08:56;;;;;;;6.13;1.60;;;24.20;55.00;;;;;;5023696;27;96063;-41
2021/01/21 10:11:26;;;;;;;2.00;1.40;;;24.20;55.00;;;;;;5014390;27;95505;-41
2021/01/21 10:13:56;;;;;;;3.47;1.55;;;24.20;55.10;;;;;;5018342;27;95870;-41
2021/01/21 10:16:26;;;;;;;5.28;1.70;;;24.20;55.10;;;;;;5012985;27;95968;-41
2021/01/21 10:18:57;;;;;;;4.90;1.75;;;24.20;55.20;;;;;;5017573;27;96632;-41
2021/01/21 10:21:29;;;;;;;5.30;1.98;;;24.20;55.20;;;;;;5009562;28;95868;-41
2021/01/21 10:24:00;;;;;;;4.88;1.65;;;24.10;55.10;;;;;;5017299;27;95834;-42
2021/01/21 10:26:32;;;;;;;3.88;2.00;;;24.10;55.20;;;;;;5013152;28;96606;-41
2021/01/21 10:29:03;;;;;;;1.80;1.52;;;24.20;55.30;;;;;;5015713;27;95764;-41
2021/01/21 10:31:35;;;;;;;3.13;1.80;;;24.10;55.30;;;;;;5014669;27;95874;-41
2021/01/21 10:34:05;;;;;;;4.72;1.67;;;24.10;55.40;;;;;;5007720;28;95921;-41
2021/01/21 10:36:35;;;;;;;3.33;1.73;;;24.10;55.40;;;;;;5017401;28;95898;-43
2021/01/21 10:39:05;;;;;;;4.00;1.63;;;24.10;55.50;;;;;;5013896;28;95880;-42
2021/01/21 10:41:36;;;;;;;9.17;1.60;;;24.10;55.50;;;;;;5022684;28;96000;-41
2021/01/21 10:44:07;;;;;;;4.70;1.20;;;24.10;55.60;;;;;;5013562;28;95461;-41
2021/01/21 10:46:39;;;;;;;5.75;1.73;;;24.10;56.20;;;;;;5014322;27;96057;-41
2021/01/21 10:49:14;;;;;;;3.53;1.80;;;24.10;55.60;;;;;;5012453;28;96012;-41
2021/01/21 10:51:46;;;;;;;4.60;1.90;;;24.00;55.60;;;;;;5018194;28;95941;-42
2021/01/21 10:54:21;;;;;;;6.90;1.58;;;24.00;55.70;;;;;;5018474;28;95781;-41
2021/01/21 10:56:57;;;;;;;3.72;1.75;;;24.00;55.70;;;;;;5017451;27;98252;-42
2021/01/21 10:59:29;;;;;;;3.72;1.52;;;24.00;55.80;;;;;;5010614;28;95432;-41
2021/01/21 11:02:01;;;;;;;3.20;1.38;;;24.00;55.80;;;;;;5011743;27;95911;-42
2021/01/21 11:04:34;;;;;;;2.67;1.35;;;24.00;55.80;;;;;;5014415;27;95711;-41
2021/01/21 11:07:05;;;;;;;4.18;1.50;;;24.00;55.80;;;;;;5016119;28;95859;-41
2021/01/21 11:09:38;;;;;;;6.80;1.75;;;24.00;55.90;;;;;;5012122;27;95600;-42
2021/01/21 11:12:09;;;;;;;3.83;1.60;;;24.00;55.90;;;;;;5022578;27;95394;-41
2021/01/21 11:14:42;;;;;;;4.88;1.35;;;23.90;56.00;;;;;;5013228;27;96163;-42
2021/01/21 11:17:13;;;;;;;5.65;1.48;;;23.90;56.10;;;;;;5007422;27;96420;-42
2021/01/21 11:19:49;;;;;;;5.03;1.52;;;23.90;56.20;;;;;;5009629;27;95233;-41
2021/01/21 11:22:20;;;;;;;8.30;2.13;;;23.90;56.40;;;;;;5011123;28;95729;-42
2021/01/21 11:24:49;;;;;;;4.50;1.73;;;23.90;56.20;;;;;;5018877;28;95963;-42
2021/01/21 11:27:19;;;;;;;6.00;1.88;;;23.90;56.20;;;;;;5050773;27;96462;-42
2021/01/21 11:29:49;;;;;;;3.70;1.60;;;23.90;56.20;;;;;;5015300;28;95612;-41
2021/01/21 11:32:21;;;;;;;4.68;1.58;;;23.80;56.30;;;;;;5020570;27;95894;-42
2021/01/21 11:34:52;;;;;;;4.45;1.98;;;23.80;56.30;;;;;;5013347;27;95922;-41
2021/01/21 11:37:22;;;;;;;2.95;1.75;;;23.80;56.30;;;;;;5016261;27;96009;-42
2021/01/21 11:39:52;;;;;;;4.43;1.55;;;23.80;56.30;;;;;;5008400;28;95750;-41
2021/01/21 11:42:24;;;;;;;2.53;1.15;;;23.80;56.30;;;;;;5019121;28;95924;-41
2021/01/21 11:44:55;;;;;;;3.70;1.77;;;23.80;56.30;;;;;;5016461;28;96743;-41
2021/01/21 11:47:24;;;;;;;5.43;1.60;;;23.80;56.40;;;;;;5015899;28;96711;-42
2021/01/21 11:49:54;;;;;;;2.30;1.52;;;23.80;56.40;;;;;;5008225;28;96107;-42
2021/01/21 11:52:26;;;;;;;2.67;1.27;;;23.80;56.40;;;;;;5016910;28;95879;-42
2021/01/21 11:54:57;;;;;;;2.58;1.17;;;23.80;56.50;;;;;;5011173;28;95828;-42
2021/01/21 11:57:29;;;;;;;7.35;1.80;;;23.70;56.40;;;;;;5013095;28;95862;-42
2021/01/21 12:00:09;;;;;;;5.07;1.50;;;23.70;56.50;;;;;;5013414;27;95855;-43
2021/01/21 12:02:40;;;;;;;4.43;1.65;;;23.70;56.40;;;;;;5019338;27;95742;-42
2021/01/21 12:05:12;;;;;;;5.72;1.35;;;23.70;56.50;;;;;;5015193;28;95734;-41
2021/01/21 12:07:43;;;;;;;3.83;1.45;;;23.70;56.50;;;;;;5017330;28;96115;-42
2021/01/21 12:10:19;;;;;;;3.22;1.50;;;23.70;56.50;;;;;;5015417;27;96151;-42
2021/01/21 12:12:49;;;;;;;2.53;1.30;;;23.70;56.50;;;;;;5016761;27;95313;-42
2021/01/21 12:15:19;;;;;;;1.63;1.00;;;23.70;56.60;;;;;;5015628;27;95822;-42
2021/01/21 12:17:50;;;;;;;5.18;1.30;;;23.70;56.50;;;;;;5012807;28;96038;-44
2021/01/21 12:20:20;;;;;;;;;;;23.60;56.60;;;;;;5013676;27;96270;-42
2021/01/21 12:22:51;;;;;;;2.45;1.25;;;23.60;56.40;;;;;;5013673;28;96716;-43
2021/01/21 12:25:20;;;;;;;2.63;1.25;;;23.60;56.60;;;;;;5023747;27;95980;-42
2021/01/21 12:27:50;;;;;;;6.25;1.75;;;23.60;56.70;;;;;;5019570;28;96557;-44
2021/01/21 12:30:19;;;;;;;4.80;1.33;;;23.60;56.80;;;;;;5014323;27;95916;-41
2021/01/21 12:32:52;;;;;;;6.93;1.70;;;23.60;56.80;;;;;;5013165;27;95852;-42
2021/01/21 12:35:23;;;;;;;6.57;1.65;;;23.50;56.70;;;;;;5012625;28;95738;-42
2021/01/21 12:37:54;;;;;;;1.02;0.93;;;23.60;56.80;;;;;;5017847;27;97097;-41
2021/01/21 12:40:25;;;;;;;3.47;1.17;;;23.50;56.80;;;;;;5018947;28;95841;-42
2021/01/21 12:42:56;;;;;;;3.30;1.58;;;23.50;56.80;;;;;;5022497;27;95934;-41
2021/01/21 12:45:26;;;;;;;;;;;23.50;56.80;;;;;;5006872;28;95841;-41
2021/01/21 12:47:56;;;;;;;3.60;1.65;;;23.40;56.60;;;;;;4991663;28;102391;-42
2021/01/21 12:50:27;;;;;;;3.17;1.20;;;23.50;56.90;;;;;;5000388;28;95801;-41
2021/01/21 12:52:58;;;;;;;2.20;1.20;;;23.40;56.90;;;;;;4995310;28;96012;-41
2021/01/21 12:55:29;;;;;;;3.10;1.20;;;23.40;56.90;;;;;;4993157;28;95799;-41
2021/01/21 12:57:59;;;;;;;;;;;23.40;57.00;;;;;;4991225;28;96843;-42
2021/01/21 13:00:30;;;;;;;6.68;2.10;;;23.40;56.80;;;;;;4994146;28;95418;-41
2021/01/21 13:03:01;;;;;;;6.07;1.67;;;23.40;57.40;;;;;;5006345;27;96287;-40
2021/01/21 13:05:33;;;;;;;5.88;2.28;;;23.30;57.30;;;;;;5020567;28;95968;-41
2021/01/21 13:08:12;;;;;;;6.88;1.90;;;23.30;57.50;;;;;;5011081;27;96315;-40
2021/01/21 13:10:43;;;;;;;4.13;1.70;;;23.30;57.60;;;;;;5015787;28;95861;-40
2021/01/21 13:13:13;;;;;;;6.50;2.38;;;23.20;57.50;;;;;;5012413;27;96133;-40
2021/01/21 13:15:45;;;;;;;6.68;1.60;;;23.20;57.60;;;;;;5013096;27;95913;-40
2021/01/21 13:18:17;;;;;;;4.82;1.50;;;23.10;57.60;;;;;;5011179;27;96135;-40
2021/01/21 13:20:49;;;;;;;9.00;1.60;;;23.10;57.90;;;;;;5015723;28;95804;-40
2021/01/21 13:23:18;;;;;;;7.25;1.80;;;23.00;57.90;;;;;;5016495;28;95767;-40
2021/01/21 13:25:48;;;;;;;5.53;1.27;;;23.00;58.00;;;;;;5013240;28;96199;-40
2021/01/21 13:28:17;;;;;;;3.85;1.45;;;23.00;58.10;;;;;;5018063;28;95811;-40
2021/01/21 13:30:47;;;;;;;5.38;1.83;;;23.00;58.10;;;;;;5010462;27;97680;-40
2021/01/21 13:33:16;;;;;;;5.07;1.33;;;23.00;58.30;;;;;;5018370;28;95750;-40
2021/01/21 13:35:48;;;;;;;4.97;2.13;;;23.00;58.10;;;;;;5010559;28;95294;-40